Kezdőlap
METAR-TAF:

METAR-TAF

Repülőterek :

Corsicana Municipal Airport (C. David Campbell Field)

Corsicana, Texas, Amerikai Egyesült Államok

földrajzi szélesség: 32-01-52N, földrajzi hosszúság: 096-23-56W, magasság: 136 m

Jelenlegi meteorológiai megfigyelések

A jelentés 1 órával és 1 perccel ezelõtt készült, 02:53 UTC
Délkeleti szél 5 kt
Hőmérséklet 28°C
Páratartalom 70%
Légköri nyomás 1018 hPa
Látótávolság: 16.1 km
Derült ég

METAR: KCRS 220253Z AUTO 13005KT 10SM CLR 28/22 A3007 RMK AO2 SLP177 T02830217 53001

Idő: 22:54 (03:54 UTC)


TAF: hiányzik

Meteorológiai megfigyelések és előrejelzések több, mint 4000 repülőtéren (METAR és TAF jelentéseket).

A térképen piros és sárga pontok jelzik az elérhető meteorológiai állomásokat.

Mozgassa az egeret a pont fölött, hogy megjelenjen az állomás neve.

Azután kattintson az időjárási megfigyelések és előrejelzések megtekintéséhez.

A térkép megváltoztatása: kattintson a fekete keresztel jelölt zöld gombra ráközelítéshez, a vonallal jelölt zöld gombra távolításhoz, vagy a zöld nyilakra a szomszédos térképek eléréséhez.


METAR-TAF: